Time;durP1;ratioP1;P1;durP2;ratioP2;P2;SDS_P1;SDS_P2;PMS_P1;PMS_P2;Temp;Humidity;BMP_temperature;BMP_pressure;BME280_temperature;BME280_humidity;BME280_pressure;Samples;Min_cycle;Max_cycle;Signal;HPM_P1;HPM_P2
2021/06/03 00:02:09;;;;;;;;;;;12.70;99.90;;;;;;5111517;28;19916;-68
2021/06/03 00:04:39;;;;;;;;;;;12.60;99.90;;;;;;5113349;28;19912;-71
2021/06/03 00:07:06;;;;;;;;;;;12.60;99.90;;;;;;5112849;28;19908;-72
2021/06/03 00:09:33;;;;;;;;;;;12.60;99.90;;;;;;5113649;28;19908;-71
2021/06/03 00:12:00;;;;;;;;;;;12.50;99.90;;;;;;5113776;28;20322;-71
2021/06/03 00:14:26;;;;;;;;;;;12.40;99.90;;;;;;5117052;28;20250;-70
2021/06/03 00:16:53;;;;;;;;;;;12.30;99.90;;;;;;5117354;28;19920;-70
2021/06/03 00:19:20;;;;;;;;;;;12.20;99.90;;;;;;5117947;28;19915;-70
2021/06/03 00:21:46;;;;;;;;;;;12.10;99.90;;;;;;5117899;28;20318;-69
2021/06/03 00:24:13;;;;;;;;;;;12.10;99.90;;;;;;5118063;28;19907;-70
2021/06/03 00:26:44;;;;;;;;;;;12.10;99.90;;;;;;5117544;28;20003;-69
2021/06/03 00:29:11;;;;;;;;;;;12.00;99.90;;;;;;5116125;28;19923;-71
2021/06/03 00:31:43;;;;;;;;;;;12.00;99.90;;;;;;5117270;28;20346;-72
2021/06/03 00:34:10;;;;;;;;;;;12.00;99.90;;;;;;5117284;28;20277;-71
2021/06/03 00:36:37;;;;;;;;;;;12.00;99.90;;;;;;5116115;28;19912;-70
2021/06/03 00:39:05;;;;;;;;;;;12.10;99.90;;;;;;5117128;28;19914;-73
2021/06/03 00:41:32;;;;;;;;;;;12.10;99.90;;;;;;5117007;28;20010;-71
2021/06/03 00:44:01;;;;;;;;;;;12.10;99.90;;;;;;5116804;28;19926;-72
2021/06/03 00:46:28;;;;;;;;;;;12.10;99.90;;;;;;5115812;28;19909;-68
2021/06/03 00:48:54;;;;;;;;;;;12.20;99.90;;;;;;5117114;28;19924;-71
2021/06/03 00:51:27;;;;;;;;;;;12.20;99.90;;;;;;5117048;28;20287;-73
2021/06/03 00:53:54;;;;;;;;;;;12.10;99.90;;;;;;5116877;28;19998;-71
2021/06/03 00:56:20;;;;;;;;;;;12.10;99.90;;;;;;5117679;28;19919;-69
2021/06/03 00:58:48;;;;;;;;;;;12.20;99.90;;;;;;5117700;28;20354;-73
2021/06/03 01:01:16;;;;;;;;;;;12.20;99.90;;;;;;5117728;28;19911;-72
2021/06/03 01:03:43;;;;;;;;;;;12.20;99.90;;;;;;5127637;28;19915;-70
2021/06/03 01:06:11;;;;;;;;;;;12.20;99.90;;;;;;5124282;28;19953;-72
2021/06/03 01:08:44;;;;;;;;;;;12.20;99.90;;;;;;5120666;28;19907;-71
2021/06/03 01:11:11;;;;;;;;;;;12.20;99.90;;;;;;5116690;28;19912;-71
2021/06/03 01:13:38;;;;;;;;;;;12.30;99.90;;;;;;5116650;28;20330;-72
2021/06/03 01:16:05;;;;;;;;;;;12.30;99.90;;;;;;5116203;28;20278;-71
2021/06/03 01:18:32;;;;;;;;;;;12.30;99.90;;;;;;5116336;28;19915;-71
2021/06/03 01:20:59;;;;;;;;;;;12.30;99.90;;;;;;5116047;28;19907;-69
2021/06/03 01:23:29;;;;;;;;;;;12.20;99.90;;;;;;5115959;28;19915;-70
2021/06/03 01:25:56;;;;;;;;;;;12.20;99.90;;;;;;5115862;28;19915;-72
2021/06/03 01:28:24;;;;;;;;;;;12.30;99.90;;;;;;5116028;28;19907;-71
2021/06/03 01:30:52;;;;;;;;;;;12.30;99.90;;;;;;5116084;28;19912;-71
2021/06/03 01:33:20;;;;;;;;;;;12.30;99.90;;;;;;5114799;28;19969;-70
2021/06/03 01:35:49;;;;;;;;;;;12.40;99.90;;;;;;5116177;28;19962;-70
2021/06/03 01:38:17;;;;;;;;;;;12.30;99.90;;;;;;5115934;28;19912;-71
2021/06/03 01:40:46;;;;;;;;;;;12.40;99.90;;;;;;5115848;28;19953;-71
2021/06/03 01:43:14;;;;;;;;;;;12.50;99.90;;;;;;5115586;28;19916;-72
2021/06/03 01:45:42;;;;;;;;;;;12.50;99.90;;;;;;5115703;28;19912;-71
2021/06/03 01:48:12;;;;;;;;;;;12.50;99.90;;;;;;5115885;28;19915;-71
2021/06/03 01:50:42;;;;;;;;;;;12.50;99.90;;;;;;5115668;28;20255;-69
2021/06/03 01:53:10;;;;;;;;;;;12.50;99.90;;;;;;5115785;28;19953;-71
2021/06/03 01:55:37;;;;;;;;;;;12.50;99.90;;;;;;5115754;28;19908;-71
2021/06/03 01:58:05;;;;;;;;;;;12.50;99.90;;;;;;5115751;28;19951;-71
2021/06/03 02:00:33;;;;;;;;;;;12.50;99.90;;;;;;5115267;28;19915;-71
2021/06/03 02:03:00;;;;;;;;;;;12.50;99.90;;;;;;5115463;28;19915;-70
2021/06/03 02:05:28;;;;;;;;;;;12.50;99.90;;;;;;5115459;28;20362;-72
2021/06/03 02:07:54;;;;;;;;;;;12.60;99.90;;;;;;5115336;28;19995;-70
2021/06/03 02:10:22;;;;;;;;;;;12.50;99.90;;;;;;5114060;28;19912;-71
2021/06/03 02:12:54;;;;;;;;;;;12.50;99.90;;;;;;5113900;28;20385;-73
2021/06/03 02:15:22;;;;;;;;;;;12.50;99.90;;;;;;5115111;28;19943;-70
2021/06/03 02:17:51;;;;;;;;;;;12.50;99.90;;;;;;5115239;28;19908;-70
2021/06/03 02:20:23;;;;;;;;;;;12.50;99.90;;;;;;5115473;28;19914;-70
2021/06/03 02:22:53;;;;;;;;;;;12.60;99.90;;;;;;5114977;28;19961;-72
2021/06/03 02:25:21;;;;;;;;;;;12.60;99.90;;;;;;5115264;28;19908;-72
2021/06/03 02:27:51;;;;;;;;;;;12.60;99.90;;;;;;5115241;28;20032;-70
2021/06/03 02:30:24;;;;;;;;;;;12.60;99.90;;;;;;5116104;28;19916;-70
2021/06/03 02:32:52;;;;;;;;;;;12.60;99.90;;;;;;5129876;28;19975;-68
2021/06/03 02:35:20;;;;;;;;;;;12.60;99.90;;;;;;5130634;28;19915;-67
2021/06/03 02:37:47;;;;;;;;;;;12.60;99.90;;;;;;5125056;28;20381;-67
2021/06/03 02:40:19;;;;;;;;;;;12.50;99.90;;;;;;5115369;28;19953;-70
2021/06/03 02:42:47;;;;;;;;;;;12.60;99.90;;;;;;5096203;28;20399;-70
2021/06/03 02:45:15;;;;;;;;;;;12.70;99.90;;;;;;5114381;28;20286;-70
2021/06/03 02:47:43;;;;;;;;;;;12.70;99.90;;;;;;5114717;28;19908;-71
2021/06/03 02:50:10;;;;;;;;;;;12.70;99.90;;;;;;5114576;28;20385;-71
2021/06/03 02:52:38;;;;;;;;;;;12.70;99.90;;;;;;5127760;28;20310;-70
2021/06/03 02:55:05;;;;;;;;;;;12.70;99.90;;;;;;5121426;28;19932;-70
2021/06/03 02:57:32;;;;;;;;;;;12.80;99.90;;;;;;5114736;28;19951;-71
2021/06/03 02:59:59;;;;;;;;;;;12.80;99.90;;;;;;5114617;28;19994;-70
2021/06/03 03:02:26;;;;;;;;;;;12.80;99.90;;;;;;5114485;28;19916;-70
2021/06/03 03:04:52;;;;;;;;;;;12.80;99.90;;;;;;5114342;28;20055;-70
2021/06/03 03:07:19;;;;;;;;;;;12.80;99.90;;;;;;5114443;28;20421;-70
2021/06/03 03:09:47;;;;;;;;;;;12.80;99.90;;;;;;5114122;28;20007;-71
2021/06/03 03:12:14;;;;;;;;;;;12.80;99.90;;;;;;5114679;28;19908;-71
2021/06/03 03:14:41;;;;;;;;;;;12.80;99.90;;;;;;5114149;28;19943;-72
2021/06/03 03:17:07;;;;;;;;;;;12.80;99.90;;;;;;5113943;28;19908;-70
2021/06/03 03:19:35;;;;;;;;;;;12.80;99.90;;;;;;5114352;28;19932;-70
2021/06/03 03:22:02;;;;;;;;;;;12.80;99.90;;;;;;5113986;28;19912;-70
2021/06/03 03:24:31;;;;;;;;;;;12.80;99.90;;;;;;5114056;28;20285;-71
2021/06/03 03:26:58;;;;;;;;;;;12.80;99.90;;;;;;5113824;28;19911;-72
2021/06/03 03:29:25;;;;;;;;;;;12.70;99.90;;;;;;5114104;28;19942;-70
2021/06/03 03:31:55;;;;;;;;;;;12.70;99.90;;;;;;5114214;28;19908;-71
2021/06/03 03:34:21;;;;;;;;;;;12.70;99.90;;;;;;5113926;28;19919;-69
2021/06/03 03:36:48;;;;;;;;;;;12.60;99.90;;;;;;5113814;28;20358;-70
2021/06/03 03:39:14;;;;;;;;;;;12.60;99.90;;;;;;5114206;28;19908;-71
2021/06/03 03:41:44;;;;;;;;;;;12.50;99.90;;;;;;5113999;28;19916;-71
2021/06/03 03:44:10;;;;;;;;;;;12.60;99.90;;;;;;5114176;28;20358;-72
2021/06/03 03:46:37;;;;;;;;;;;12.60;99.90;;;;;;5114245;28;19908;-71
2021/06/03 03:49:05;;;;;;;;;;;12.70;99.90;;;;;;5118367;28;19964;-70
2021/06/03 03:51:31;;;;;;;;;;;12.70;99.90;;;;;;5118348;28;19919;-71
2021/06/03 03:54:03;;;;;;;;;;;12.60;99.90;;;;;;5118415;28;20037;-70
2021/06/03 03:56:30;;;;;;;;;;;12.70;99.90;;;;;;5118406;28;19915;-71
2021/06/03 03:58:58;;;;;;;;;;;12.70;99.90;;;;;;5118261;28;19915;-69
2021/06/03 04:01:28;;;;;;;;;;;12.80;99.90;;;;;;5118327;28;19908;-70
2021/06/03 04:03:54;;;;;;;;;;;12.80;99.90;;;;;;5118138;28;19912;-70
2021/06/03 04:06:21;;;;;;;;;;;12.80;99.90;;;;;;5117923;28;19911;-73
2021/06/03 04:08:48;;;;;;;;;;;12.70;99.90;;;;;;5117599;28;19908;-71
2021/06/03 04:11:15;;;;;;;;;;;12.80;99.90;;;;;;5118392;28;19915;-71
2021/06/03 04:13:41;;;;;;;;;;;12.80;99.90;;;;;;5117849;28;20392;-70
2021/06/03 04:16:11;;;;;;;;;;;12.80;99.90;;;;;;5124648;28;19930;-70
2021/06/03 04:18:38;;;;;;;;;;;12.80;99.90;;;;;;5138095;28;19915;-69
2021/06/03 04:21:05;;;;;;;;;;;12.80;99.90;;;;;;5138190;28;19899;-68
2021/06/03 04:23:31;;;;;;;;;;;12.80;99.90;;;;;;5123346;28;19926;-72
2021/06/03 04:25:58;;;;;;;;;;;12.80;99.90;;;;;;5117718;28;19912;-70
2021/06/03 04:28:25;;;;;;;;;;;12.80;99.90;;;;;;5117837;28;19914;-71
2021/06/03 04:30:51;;;;;;;;;;;12.90;99.90;;;;;;5117224;28;19965;-71
2021/06/03 04:33:21;;;;;;;;;;;12.90;99.90;;;;;;5117362;28;20366;-71
2021/06/03 04:35:48;;;;;;;;;;;12.90;99.90;;;;;;5117433;28;20374;-72
2021/06/03 04:38:16;;;;;;;;;;;12.90;99.90;;;;;;5117428;28;19912;-72
2021/06/03 04:40:42;;;;;;;;;;;12.90;99.90;;;;;;5117570;28;19908;-72
2021/06/03 04:43:09;;;;;;;;;;;12.90;99.90;;;;;;5116832;28;19969;-72
2021/06/03 04:45:36;;;;;;;;;;;12.90;99.90;;;;;;5117179;28;19916;-71
2021/06/03 04:48:07;;;;;;;;;;;12.90;99.90;;;;;;5117013;28;19915;-71
2021/06/03 04:50:38;;;;;;;;;;;12.90;99.90;;;;;;5117377;28;19939;-71
2021/06/03 04:53:05;;;;;;;;;;;12.90;99.90;;;;;;5116928;28;20345;-71
2021/06/03 04:55:32;;;;;;;;;;;12.90;99.90;;;;;;5117577;28;20415;-71
2021/06/03 04:57:59;;;;;;;;;;;12.90;99.90;;;;;;5116025;28;19961;-71
2021/06/03 05:00:30;;;;;;;;;;;12.90;99.90;;;;;;5116285;28;20358;-72
2021/06/03 05:03:00;;;;;;;;;;;12.90;99.90;;;;;;5116250;28;20004;-71
2021/06/03 05:05:27;;;;;;;;;;;12.80;99.90;;;;;;5116447;28;19951;-73
2021/06/03 05:07:54;;;;;;;;;;;12.80;99.90;;;;;;5116915;28;20334;-72
2021/06/03 05:10:21;;;;;;;;;;;12.80;99.90;;;;;;5117027;28;20371;-71
2021/06/03 05:12:48;;;;;;;;;;;12.80;99.90;;;;;;5116568;28;20362;-71
2021/06/03 05:15:15;;;;;;;;;;;12.80;99.90;;;;;;5116711;28;20318;-72
2021/06/03 05:17:51;;;;;;;;;;;12.80;99.90;;;;;;5116845;28;19998;-72
2021/06/03 05:20:19;;;;;;;;;;;12.80;99.90;;;;;;5116603;28;20322;-71
2021/06/03 05:22:46;;;;;;;;;;;12.90;99.90;;;;;;5116322;28;20007;-69
2021/06/03 05:25:15;;;;;;;;;;;12.90;99.90;;;;;;5116782;28;20278;-71
2021/06/03 05:27:42;;;;;;;;;;;12.90;99.90;;;;;;5116683;28;19908;-70
2021/06/03 05:30:10;;;;;;;;;;;12.90;99.90;;;;;;5116572;28;19915;-70
2021/06/03 05:32:37;;;;;;;;;;;12.90;99.90;;;;;;5116740;28;19908;-69
2021/06/03 05:35:05;;;;;;;;;;;12.90;99.90;;;;;;5116449;28;19908;-70
2021/06/03 05:37:31;;;;;;;;;;;12.90;99.90;;;;;;5116191;28;19911;-71
2021/06/03 05:40:00;;;;;;;;;;;12.90;99.90;;;;;;5116225;28;20274;-71
2021/06/03 05:42:27;;;;;;;;;;;12.90;99.90;;;;;;5116612;28;19939;-71
2021/06/03 05:44:54;;;;;;;;;;;12.90;99.90;;;;;;5130156;28;19920;-68
2021/06/03 05:47:20;;;;;;;;;;;12.90;99.90;;;;;;5132679;28;19914;-71
2021/06/03 05:49:47;;;;;;;;;;;12.90;99.90;;;;;;5131972;28;19947;-70
2021/06/03 05:52:14;;;;;;;;;;;12.80;99.90;;;;;;5116244;28;20397;-71
2021/06/03 05:54:43;;;;;;;;;;;12.90;99.90;;;;;;5116047;28;20007;-70
2021/06/03 05:57:10;;;;;;;;;;;12.90;99.90;;;;;;5116465;28;19908;-71
2021/06/03 05:59:37;;;;;;;;;;;12.90;99.90;;;;;;5115830;28;19947;-72
2021/06/03 06:02:06;;;;;;;;;;;12.90;99.90;;;;;;5116028;28;19939;-70
2021/06/03 06:07:03;;;;;;;;;;;12.90;99.90;;;;;;5115724;28;19986;-72
2021/06/03 06:09:30;;;;;;;;;;;13.00;99.90;;;;;;5115811;28;19908;-72
2021/06/03 06:11:56;;;;;;;;;;;13.00;99.90;;;;;;5114993;28;19998;-70
2021/06/03 06:14:23;;;;;;;;;;;12.90;99.90;;;;;;5115490;28;20274;-71
2021/06/03 06:16:51;;;;;;;;;;;12.90;99.90;;;;;;5115394;28;19907;-71
2021/06/03 06:19:17;;;;;;;;;;;12.90;99.90;;;;;;5115644;28;19908;-71
2021/06/03 06:21:47;;;;;;;;;;;12.80;99.90;;;;;;5115501;28;19935;-71
2021/06/03 06:24:14;;;;;;;;;;;12.80;99.90;;;;;;5115428;28;19912;-70
2021/06/03 06:26:40;;;;;;;;;;;12.80;99.90;;;;;;5115286;28;20416;-70
2021/06/03 06:29:07;;;;;;;;;;;12.70;99.90;;;;;;5115115;28;19923;-69
2021/06/03 06:31:34;;;;;;;;;;;12.80;99.90;;;;;;5113546;28;19994;-72
2021/06/03 06:34:01;;;;;;;;;;;12.80;99.90;;;;;;5113780;28;19916;-73
2021/06/03 06:36:27;;;;;;;;;;;12.80;99.90;;;;;;5114887;28;19908;-70
2021/06/03 06:38:55;;;;;;;;;;;12.80;99.90;;;;;;5113974;28;19999;-71
2021/06/03 06:41:22;;;;;;;;;;;12.80;99.90;;;;;;5115058;28;19915;-72
2021/06/03 06:43:50;;;;;;;;;;;12.80;99.90;;;;;;5115184;28;19923;-71
2021/06/03 06:46:16;;;;;;;;;;;13.00;99.90;;;;;;5115095;28;19914;-71
2021/06/03 06:48:44;;;;;;;;;;;13.10;99.90;;;;;;5114985;28;19907;-71
2021/06/03 06:51:11;;;;;;;;;;;13.10;99.90;;;;;;5114959;28;20354;-72
2021/06/03 06:53:39;;;;;;;;;;;13.00;99.90;;;;;;5115249;28;19995;-71
2021/06/03 06:56:06;;;;;;;;;;;12.90;99.90;;;;;;5114973;28;19907;-71
2021/06/03 06:58:32;;;;;;;;;;;12.90;99.90;;;;;;5113578;28;20049;-71
2021/06/03 07:01:02;;;;;;;;;;;12.80;99.90;;;;;;5114484;28;19961;-71
2021/06/03 07:03:28;;;;;;;;;;;12.70;99.90;;;;;;5114729;28;19915;-72
2021/06/03 07:05:55;;;;;;;;;;;12.60;99.90;;;;;;5114910;28;19908;-72
2021/06/03 07:08:22;;;;;;;;;;;12.60;99.90;;;;;;5114707;28;20324;-72
2021/06/03 07:10:50;;;;;;;;;;;12.60;99.90;;;;;;5124037;28;19892;-69
2021/06/03 07:13:16;;;;;;;;;;;12.60;99.90;;;;;;5130249;28;19908;-69
2021/06/03 07:15:43;;;;;;;;;;;12.70;99.90;;;;;;5133585;28;19908;-70
2021/06/03 07:18:10;;;;;;;;;;;12.70;99.90;;;;;;5116373;28;20270;-71
2021/06/03 07:20:37;;;;;;;;;;;12.80;99.90;;;;;;5114398;28;19961;-70
2021/06/03 07:23:06;;;;;;;;;;;12.80;99.90;;;;;;5114008;28;19920;-70
2021/06/03 07:25:35;;;;;;;;;;;12.80;99.90;;;;;;5114323;28;19908;-70
2021/06/03 07:28:01;;;;;;;;;;;12.80;99.90;;;;;;5114210;28;19935;-71
2021/06/03 07:30:28;;;;;;;;;;;12.90;99.90;;;;;;5113611;28;19908;-71
2021/06/03 07:32:55;;;;;;;;;;;13.10;99.90;;;;;;5113986;28;19908;-71
2021/06/03 07:35:22;;;;;;;;;;;13.10;99.90;;;;;;5114388;28;19908;-72
2021/06/03 07:37:49;;;;;;;;;;;13.30;99.90;;;;;;5114327;28;20305;-72
2021/06/03 07:40:20;;;;;;;;;;;13.20;99.90;;;;;;5112689;28;19915;-72
2021/06/03 07:42:47;;;;;;;;;;;13.30;99.90;;;;;;5111880;28;19955;-72
2021/06/03 07:45:16;;;;;;;;;;;13.30;99.90;;;;;;5080246;28;20370;-71
2021/06/03 07:47:44;;;;;;;;;;;13.40;99.90;;;;;;5070444;28;20305;-71
2021/06/03 07:50:12;;;;;;;;;;;13.40;99.90;;;;;;5071154;28;19916;-71
2021/06/03 07:52:39;;;;;;;;;;;13.50;99.90;;;;;;5071896;28;20270;-72
2021/06/03 07:55:07;;;;;;;;;;;13.50;99.90;;;;;;5071121;28;19995;-70
2021/06/03 07:57:34;;;;;;;;;;;13.50;99.90;;;;;;5071590;28;19912;-70
2021/06/03 08:00:01;;;;;;;;;;;13.50;99.90;;;;;;5071766;28;19913;-73
2021/06/03 08:02:29;;;;;;;;;;;13.50;99.90;;;;;;5103822;28;19917;-72
2021/06/03 08:04:56;;;;;;;;;;;13.50;99.90;;;;;;5071378;28;19941;-72
2021/06/03 08:07:22;;;;;;;;;;;13.50;99.90;;;;;;5071335;28;20026;-73
2021/06/03 08:09:49;;;;;;;;;;;13.40;99.90;;;;;;5071541;28;20482;-71
2021/06/03 08:12:18;;;;;;;;;;;13.40;99.90;;;;;;5071475;28;20018;-73
2021/06/03 08:14:45;;;;;;;;;;;13.40;99.90;;;;;;5070277;28;19914;-72
2021/06/03 08:17:12;;;;;;;;;;;13.40;99.90;;;;;;5071192;28;19908;-71
2021/06/03 08:19:38;;;;;;;;;;;13.40;99.90;;;;;;5071261;28;19908;-72
2021/06/03 08:22:05;;;;;;;;;;;13.40;99.90;;;;;;5071046;28;19916;-73
2021/06/03 08:24:32;;;;;;;;;;;13.40;99.90;;;;;;5070658;28;19920;-72
2021/06/03 08:27:00;;;;;;;;;;;13.40;99.90;;;;;;5071039;28;19909;-73
2021/06/03 08:29:26;;;;;;;;;;;13.40;99.90;;;;;;5070700;28;19912;-72
2021/06/03 08:31:54;;;;;;;;;;;13.40;99.90;;;;;;5103717;28;19920;-72
2021/06/03 08:34:21;;;;;;;;;;;13.50;99.90;;;;;;5072668;28;19912;-72
2021/06/03 08:36:47;;;;;;;;;;;13.50;99.90;;;;;;5074537;28;19913;-69
2021/06/03 08:39:15;;;;;;;;;;;13.50;99.90;;;;;;5087132;28;19912;-68
2021/06/03 08:41:45;;;;;;;;;;;13.50;99.90;;;;;;5095657;28;19912;-71
2021/06/03 08:44:12;;;;;;;;;;;13.50;99.90;;;;;;5094460;28;19924;-70
2021/06/03 08:46:39;;;;;;;;;;;13.60;99.90;;;;;;5076310;28;20003;-72
2021/06/03 08:49:08;;;;;;;;;;;13.50;99.90;;;;;;5074265;28;19914;-72
2021/06/03 08:51:35;;;;;;;;;;;13.40;99.90;;;;;;5075025;28;19915;-72
2021/06/03 08:54:02;;;;;;;;;;;13.30;99.90;;;;;;5074460;28;19966;-71
2021/06/03 08:56:29;;;;;;;;;;;13.20;99.90;;;;;;5074551;28;19916;-72
2021/06/03 08:58:59;;;;;;;;;;;13.10;99.90;;;;;;5073603;28;19912;-72
2021/06/03 09:01:28;;;;;;;;;;;13.10;99.90;;;;;;5074777;28;19919;-72
2021/06/03 09:03:58;;;;;;;;;;;13.00;99.90;;;;;;5073985;28;19940;-72
2021/06/03 09:06:33;;;;;;;;;;;13.00;99.90;;;;;;5075779;28;19999;-73
2021/06/03 09:08:59;;;;;;;;;;;12.90;99.90;;;;;;5076332;28;20011;-73
2021/06/03 09:11:28;;;;;;;;;;;12.90;99.90;;;;;;5076348;28;20283;-73
2021/06/03 09:14:04;;;;;;;;;;;12.90;99.90;;;;;;5075736;28;20271;-72
2021/06/03 09:16:33;;;;;;;;;;;12.90;99.90;;;;;;5076009;28;19912;-74
2021/06/03 09:18:59;;;;;;;;;;;12.90;99.90;;;;;;5076049;28;19909;-73
2021/06/03 09:21:31;;;;;;;;;;;12.90;99.90;;;;;;5076527;28;20274;-73
2021/06/03 09:24:00;;;;;;;;;;;12.90;99.90;;;;;;5076633;28;19908;-73
2021/06/03 09:26:29;;;;;;;;;;;12.90;99.90;;;;;;5076173;28;20341;-73
2021/06/03 09:28:59;;;;;;;;;;;12.90;99.90;;;;;;5075294;28;19909;-73
2021/06/03 09:31:28;;;;;;;;;;;13.00;99.90;;;;;;5075337;28;19932;-70
2021/06/03 09:33:58;;;;;;;;;;;13.00;99.90;;;;;;5075800;28;19909;-72
2021/06/03 09:36:29;;;;;;;;;;;12.90;99.90;;;;;;5075808;28;20291;-71
2021/06/03 09:39:13;;;;;;;;;;;13.00;99.90;;;;;;5075473;28;20251;-71
2021/06/03 09:41:42;;;;;;;;;;;12.90;99.90;;;;;;5076416;28;19916;-73
2021/06/03 09:44:11;;;;;;;;;;;12.90;99.90;;;;;;5074747;28;19920;-73
2021/06/03 09:46:39;;;;;;;;;;;12.90;99.90;;;;;;5075097;28;19908;-72
2021/06/03 09:49:06;;;;;;;;;;;12.90;99.90;;;;;;5074744;28;19909;-71
2021/06/03 09:51:36;;;;;;;;;;;12.90;99.90;;;;;;5075334;28;19908;-69
2021/06/03 09:54:05;;;;;;;;;;;12.90;99.90;;;;;;5107296;28;19912;-72
2021/06/03 09:56:33;;;;;;;;;;;12.90;99.90;;;;;;5075266;28;20003;-72
2021/06/03 09:59:04;;;;;;;;;;;13.00;99.90;;;;;;5074406;28;19915;-69
2021/06/03 10:02:03;;;;;;;;;;;12.90;99.90;;;;;;5074990;28;19913;-69
2021/06/03 10:04:31;;;;;;;;;;;12.90;99.90;;;;;;5062768;28;19919;-71
2021/06/03 10:06:58;;;;;;;;;;;13.00;99.90;;;;;;5074893;28;19915;-70
2021/06/03 10:09:34;;;;;;;;;;;13.00;99.90;;;;;;5089905;28;19908;-68
2021/06/03 10:12:00;;;;;;;;;;;13.00;99.90;;;;;;5088725;28;19908;-69
2021/06/03 10:14:28;;;;;;;;;;;13.00;99.90;;;;;;5085937;28;19954;-71
2021/06/03 10:16:55;;;;;;;;;;;13.00;99.90;;;;;;5074623;28;19908;-69
2021/06/03 10:19:23;;;;;;;;;;;12.90;99.90;;;;;;5074527;28;19908;-73
2021/06/03 10:22:08;;;;;;;;;;;13.00;99.90;;;;;;5074610;28;19920;-70
2021/06/03 10:24:55;;;;;;;;;;;12.90;99.90;;;;;;5074496;28;19944;-72
2021/06/03 10:27:23;;;;;;;;;;;12.90;99.90;;;;;;5073711;28;19912;-68
2021/06/03 10:29:52;;;;;;;;;;;12.90;99.90;;;;;;5074614;28;20470;-71
2021/06/03 10:32:21;;;;;;;;;;;12.90;99.90;;;;;;5074475;28;20342;-70
2021/06/03 10:34:48;;;;;;;;;;;12.90;99.90;;;;;;5074060;28;19915;-73
2021/06/03 10:37:15;;;;;;;;;;;12.90;99.90;;;;;;5106639;28;19916;-73
2021/06/03 10:39:42;;;;;;;;;;;12.90;99.90;;;;;;5073891;28;19913;-72
2021/06/03 10:42:13;;;;;;;;;;;12.90;99.90;;;;;;5073123;28;20421;-71
2021/06/03 10:44:40;;;;;;;;;;;12.90;99.90;;;;;;5073901;28;20358;-72
2021/06/03 10:47:08;;;;;;;;;;;13.00;99.90;;;;;;5073964;28;20339;-72
2021/06/03 10:49:36;;;;;;;;;;;13.00;99.90;;;;;;5074078;28;20003;-71
2021/06/03 10:52:07;;;;;;;;;;;13.00;99.90;;;;;;5074106;28;20359;-72
2021/06/03 10:54:40;;;;;;;;;;;12.90;99.90;;;;;;5073759;28;19909;-71
2021/06/03 10:57:06;;;;;;;;;;;12.90;99.90;;;;;;5072426;28;19934;-72
2021/06/03 10:59:35;;;;;;;;;;;12.90;99.90;;;;;;5073992;28;19932;-72
2021/06/03 11:02:02;;;;;;;;;;;12.90;99.90;;;;;;5073799;28;20377;-72
2021/06/03 11:04:30;;;;;;;;;;;12.90;99.90;;;;;;5073902;28;19987;-72
2021/06/03 11:06:57;;;;;;;;;;;12.90;99.90;;;;;;5073405;28;20271;-73
2021/06/03 11:09:28;;;;;;;;;;;12.80;99.90;;;;;;5073931;28;20377;-71
2021/06/03 11:12:08;;;;;;;;;;;12.80;99.90;;;;;;5073575;28;19913;-70
2021/06/03 11:15:07;;;;;;;;;;;12.80;99.90;;;;;;5074002;28;19908;-71
2021/06/03 11:17:51;;;;;;;;;;;12.90;99.90;;;;;;5069075;28;19943;-71
2021/06/03 11:20:32;;;;;;;;;;;12.90;99.90;;;;;;5073842;28;19909;-70
2021/06/03 11:23:18;;;;;;;;;;;12.90;99.90;;;;;;5073656;28;20386;-72
2021/06/03 11:25:45;;;;;;;;;;;12.80;99.90;;;;;;5073794;28;19913;-71
2021/06/03 11:28:21;;;;;;;;;;;12.90;99.90;;;;;;5073319;28;20423;-71
2021/06/03 11:30:50;;;;;;;;;;;12.90;99.90;;;;;;5073604;28;19977;-72
2021/06/03 11:33:16;;;;;;;;;;;12.80;99.90;;;;;;5074133;28;20014;-69
2021/06/03 11:35:43;;;;;;;;;;;12.80;99.90;;;;;;5074036;28;19909;-71
2021/06/03 11:38:10;;;;;;;;;;;12.80;99.90;;;;;;5084021;28;19915;-68
2021/06/03 11:40:44;;;;;;;;;;;12.80;99.90;;;;;;5085618;28;19909;-70
2021/06/03 11:43:12;;;;;;;;;;;12.90;99.90;;;;;;5083588;28;19923;-69
2021/06/03 11:45:48;;;;;;;;;;;12.90;99.90;;;;;;5073372;28;20454;-73
2021/06/03 11:48:31;;;;;;;;;;;12.90;99.90;;;;;;5073538;28;20007;-70
2021/06/03 11:51:04;;;;;;;;;;;12.90;99.90;;;;;;5073541;28;19908;-71
2021/06/03 11:53:31;;;;;;;;;;;12.90;99.90;;;;;;5073615;28;19915;-69
2021/06/03 11:56:14;;;;;;;;;;;12.90;99.90;;;;;;5105263;27;19916;-69
2021/06/03 11:58:43;;;;;;;;;;;12.80;99.90;;;;;;5073258;28;19920;-71
2021/06/03 12:01:09;;;;;;;;;;;12.80;99.90;;;;;;5072945;28;19915;-70
2021/06/03 12:03:36;;;;;;;;;;;12.90;99.90;;;;;;5073441;28;19921;-71
2021/06/03 12:06:05;;;;;;;;;;;12.90;99.90;;;;;;5073312;28;20359;-73
2021/06/03 12:08:37;;;;;;;;;;;12.90;99.90;;;;;;5073382;28;19946;-71
2021/06/03 12:11:06;;;;;;;;;;;12.90;99.90;;;;;;5077045;28;19924;-69
2021/06/03 12:13:33;;;;;;;;;;;12.90;99.90;;;;;;5077010;28;20007;-70
2021/06/03 12:16:00;;;;;;;;;;;12.90;99.90;;;;;;5077679;28;20383;-72
2021/06/03 12:18:41;;;;;;;;;;;12.90;99.90;;;;;;5077105;28;19909;-71
2021/06/03 12:21:09;;;;;;;;;;;12.90;99.90;;;;;;5076920;28;20102;-71
2021/06/03 12:23:44;;;;;;;;;;;12.90;99.90;;;;;;5077241;28;19916;-72
2021/06/03 12:26:15;;;;;;;;;;;12.80;99.90;;;;;;5076835;28;19924;-72
2021/06/03 12:28:42;;;;;;;;;;;12.80;99.90;;;;;;5076285;28;20401;-71
2021/06/03 12:31:10;;;;;;;;;;;12.80;99.90;;;;;;5077034;28;19999;-70
2021/06/03 12:33:36;;;;;;;;;;;12.80;99.90;;;;;;5077001;28;20377;-71
2021/06/03 12:36:05;;;;;;;;;;;12.80;99.90;;;;;;5076642;28;19916;-73
2021/06/03 12:38:34;;;;;;;;;;;12.80;99.90;;;;;;5076884;28;19984;-72
2021/06/03 12:41:05;;;;;;;;;;;12.80;99.90;;;;;;5076563;28;19915;-71
2021/06/03 12:43:42;;;;;;;;;;;12.80;99.90;;;;;;5076592;28;19923;-72
2021/06/03 12:46:11;;;;;;;;;;;12.90;99.90;;;;;;5076786;28;19942;-71
2021/06/03 12:48:41;;;;;;;;;;;12.90;99.90;;;;;;5076577;28;20378;-73
2021/06/03 12:51:10;;;;;;;;;;;12.80;99.90;;;;;;5076373;28;19908;-71
2021/06/03 12:53:39;;;;;;;;;;;12.80;99.90;;;;;;5077134;28;19908;-69
2021/06/03 12:56:13;;;;;;;;;;;12.80;99.90;;;;;;5076159;28;19909;-71
2021/06/03 12:58:40;;;;;;;;;;;12.70;99.90;;;;;;5076664;28;19909;-71
2021/06/03 13:01:07;;;;;;;;;;;12.80;99.90;;;;;;5076002;28;19909;-71
2021/06/03 13:03:37;;;;;;;;;;;12.80;99.90;;;;;;5076149;28;19916;-68
2021/06/03 13:06:05;;;;;;;;;;;12.80;99.90;;;;;;5076481;28;20278;-69
2021/06/03 13:09:01;;;;;;;;;;;12.80;99.90;;;;;;5091069;28;19912;-69
2021/06/03 13:11:30;;;;;;;;;;;12.80;99.90;;;;;;5086112;28;20299;-68
2021/06/03 13:14:18;;;;;;;;;;;12.90;99.90;;;;;;5087461;28;19909;-71
2021/06/03 13:16:46;;;;;;;;;;;12.80;99.90;;;;;;5071913;28;19915;-70
2021/06/03 13:19:17;;;;;;;;;;;12.80;99.90;;;;;;5075760;28;20003;-67
2021/06/03 13:21:44;;;;;;;;;;;12.70;99.90;;;;;;5075742;28;19908;-71
2021/06/03 13:24:31;;;;;;;;;;;12.80;99.90;;;;;;5075912;28;19917;-72
2021/06/03 13:27:07;;;;;;;;;;;12.70;99.90;;;;;;5075563;28;19908;-70
2021/06/03 13:29:39;;;;;;;;;;;12.70;99.90;;;;;;5076001;28;19909;-71
2021/06/03 13:32:06;;;;;;;;;;;12.70;99.90;;;;;;5075781;28;19909;-71
2021/06/03 13:34:45;;;;;;;;;;;12.70;99.90;;;;;;5075920;28;20275;-71
2021/06/03 13:37:17;;;;;;;;;;;12.70;99.90;;;;;;5075419;28;19970;-72
2021/06/03 13:39:46;;;;;;;;;;;12.70;99.90;;;;;;5075437;28;19908;-70
2021/06/03 13:42:25;;;;;;;;;;;12.60;99.90;;;;;;5075454;28;19917;-72
2021/06/03 13:44:55;;;;;;;;;;;12.70;99.90;;;;;;5080337;28;19952;-72
2021/06/03 13:48:00;;;;;;;;;;;12.60;99.90;;;;;;5075362;28;19966;-71
2021/06/03 13:50:34;;;;;;;;;;;12.60;99.90;;;;;;5053358;28;19909;-70
2021/06/03 13:53:30;;;;;;;;;;;12.60;99.90;;;;;;5052383;28;19955;-72
2021/06/03 13:56:00;;;;;;;;;;;12.60;99.90;;;;;;5069168;28;19932;-68
2021/06/03 13:58:38;;;;;;;;;;;12.60;99.90;;;;;;5075053;28;19909;-70
2021/06/03 14:01:20;;;;;;;;;;;12.70;99.90;;;;;;5075147;28;20519;-70
2021/06/03 14:03:48;;;;;;;;;;;12.60;99.90;;;;;;5075081;28;19963;-68
2021/06/03 14:06:18;;;;;;;;;;;12.70;99.90;;;;;;5076125;28;19909;-71
2021/06/03 14:08:45;;;;;;;;;;;12.60;99.90;;;;;;5074694;28;19908;-70
2021/06/03 14:14:02;;;;;;;;;;;12.60;99.90;;;;;;5074952;28;19959;-69
2021/06/03 14:16:32;;;;;;;;;;;12.60;99.90;;;;;;5074752;28;19962;-71
2021/06/03 14:19:25;;;;;;;;;;;12.60;99.90;;;;;;5074447;28;20353;-71
2021/06/03 14:21:55;;;;;;;;;;;12.60;99.90;;;;;;5066219;28;20294;-70
2021/06/03 14:24:23;;;;;;;;;;;12.50;99.90;;;;;;5074730;28;19930;-71
2021/06/03 14:26:50;;;;;;;;;;;12.50;99.90;;;;;;5074124;28;19975;-70
2021/06/03 14:29:20;;;;;;;;;;;12.40;99.90;;;;;;5074545;28;19916;-70
2021/06/03 14:31:51;;;;;;;;;;;12.40;99.90;;;;;;5073485;28;19908;-70
2021/06/03 14:34:26;;;;;;;;;;;12.40;99.90;;;;;;5074598;28;19950;-71